Time;durP1;ratioP1;P1;durP2;ratioP2;P2;SDS_P1;SDS_P2;PMS_P1;PMS_P2;Temp;Humidity;BMP_temperature;BMP_pressure;BME280_temperature;BME280_humidity;BME280_pressure;Samples;Min_cycle;Max_cycle;Signal;HPM_P1;HPM_P2
2023/04/26 00:00:32;;;;;;;;;;;;;;;20.22;38.84;101860.25;5131902;27;20376;-69
2023/04/26 00:02:59;;;;;;;;;;;;;;;20.20;38.56;101865.78;5126413;27;19920;-69
2023/04/26 00:05:24;;;;;;;;;;;;;;;20.19;38.94;101855.16;5137401;27;20302;-69
2023/04/26 00:07:49;;;;;;;;;;;;;;;20.17;38.89;101854.44;5133202;27;19943;-69
2023/04/26 00:10:14;;;;;;;;;;;;;;;20.15;38.64;101859.16;5137765;27;19947;-69
2023/04/26 00:12:40;;;;;;;;;;;;;;;20.14;38.78;101858.31;5113426;28;19916;-69
2023/04/26 00:15:06;;;;;;;;;;;;;;;20.13;38.95;101856.59;5128227;27;19930;-69
2023/04/26 00:17:31;;;;;;;;;;;;;;;20.12;38.92;101859.47;5134363;27;19922;-69
2023/04/26 00:19:57;;;;;;;;;;;;;;;20.10;38.94;101856.06;5132564;27;19987;-68
2023/04/26 00:22:23;;;;;;;;;;;;;;;20.09;39.06;101859.75;5131934;27;19919;-69
2023/04/26 00:24:48;;;;;;;;;;;;;;;20.06;38.78;101855.53;5116713;27;19912;-69
2023/04/26 00:27:13;;;;;;;;;;;;;;;20.06;38.79;101860.94;5118184;27;19949;-69
2023/04/26 00:29:38;;;;;;;;;;;;;;;20.05;39.04;101864.63;5137158;27;19911;-69
2023/04/26 00:32:03;;;;;;;;;;;;;;;20.03;38.95;101863.94;5138339;27;19915;-69
2023/04/26 00:34:33;;;;;;;;;;;;;;;20.01;38.82;101857.84;5111671;28;19916;-69
2023/04/26 00:36:58;;;;;;;;;;;;;;;20.00;38.77;101849.88;5127170;27;19994;-69
2023/04/26 00:39:23;;;;;;;;;;;;;;;19.98;38.76;101850.88;5132686;27;19915;-69
2023/04/26 00:41:48;;;;;;;;;;;;;;;19.96;38.75;101847.50;5126053;28;19937;-68
2023/04/26 00:44:13;;;;;;;;;;;;;;;19.96;38.87;101852.91;5117310;27;19915;-69
2023/04/26 00:46:39;;;;;;;;;;;;;;;19.94;38.74;101845.94;5113118;27;19912;-69
2023/04/26 00:49:04;;;;;;;;;;;;;;;19.93;38.86;101855.91;5117556;27;19923;-69
2023/04/26 00:51:30;;;;;;;;;;;;;;;19.93;38.99;101849.66;5131702;27;19926;-69
2023/04/26 00:53:55;;;;;;;;;;;;;;;19.91;38.83;101848.94;5133961;27;19919;-69
2023/04/26 00:56:20;;;;;;;;;;;;;;;19.90;38.88;101849.97;5131087;27;19911;-69
2023/04/26 00:58:46;;;;;;;;;;;;;;;19.88;38.84;101846.53;5118224;27;19985;-68
2023/04/26 01:01:12;;;;;;;;;;;;;;;19.87;39.00;101853.78;5112422;28;19912;-69
2023/04/26 01:03:37;;;;;;;;;;;;;;;19.85;38.93;101850.41;5137242;27;20276;-69
2023/04/26 01:06:02;;;;;;;;;;;;;;;19.84;39.02;101848.72;5116315;27;19915;-69
2023/04/26 01:08:27;;;;;;;;;;;;;;;19.83;38.84;101848.84;5113236;28;19914;-69
2023/04/26 01:10:53;;;;;;;;;;;;;;;19.81;39.11;101842.78;5135230;27;20383;-69
2023/04/26 01:13:18;;;;;;;;;;;;;;;19.80;38.86;101841.94;5130333;27;19919;-69
2023/04/26 01:15:46;;;;;;;;;;;;;;;19.79;39.18;101837.50;5129924;27;19947;-69
2023/04/26 01:18:13;;;;;;;;;;;;;;;19.78;38.89;101846.63;5115294;28;19965;-69
2023/04/26 01:20:38;;;;;;;;;;;;;;;19.76;39.00;101842.38;5114995;27;19922;-69
2023/04/26 01:23:03;;;;;;;;;;;;;;;19.75;39.09;101851.47;5130209;27;19923;-69
2023/04/26 01:25:29;;;;;;;;;;;;;;;19.73;39.11;101847.06;5132341;27;19912;-69
2023/04/26 01:27:54;;;;;;;;;;;;;;;19.71;38.82;101843.69;5114098;28;19916;-69
2023/04/26 01:30:19;;;;;;;;;;;;;;;19.70;39.04;101851.91;5125027;28;19922;-69
2023/04/26 01:32:44;;;;;;;;;;;;;;;19.69;38.93;101852.94;5134679;27;19992;-69
2023/04/26 01:35:10;;;;;;;;;;;;;;;19.66;38.89;101850.53;5130439;27;19963;-69
2023/04/26 01:37:35;;;;;;;;;;;;;;;19.65;38.88;101851.53;5134649;27;20789;-69
2023/04/26 01:40:00;;;;;;;;;;;;;;;19.64;38.93;101853.38;5129939;27;19912;-69
2023/04/26 01:42:26;;;;;;;;;;;;;;;19.63;39.12;101849.00;5111844;28;19959;-69
2023/04/26 01:44:51;;;;;;;;;;;;;;;19.61;39.23;101850.13;5132969;27;19998;-69
2023/04/26 01:47:16;;;;;;;;;;;;;;;19.60;38.81;101854.66;5125099;27;19968;-69
2023/04/26 01:49:41;;;;;;;;;;;;;;;19.59;39.11;101849.41;5117103;27;19916;-69
2023/04/26 01:52:06;;;;;;;;;;;;;;;19.58;39.05;101872.84;5114066;27;19915;-69
2023/04/26 01:54:31;;;;;;;;;;;;;;;19.56;38.94;101853.25;5132145;27;19947;-69
2023/04/26 01:56:57;;;;;;;;;;;;;;;19.56;39.06;101860.50;5130271;27;20395;-69
2023/04/26 01:59:22;;;;;;;;;;;;;;;19.55;39.30;101861.50;5118615;27;19915;-69
2023/04/26 02:01:47;;;;;;;;;;;;;;;19.53;38.97;101853.53;5130296;27;19912;-69
2023/04/26 02:04:12;;;;;;;;;;;;;;;19.52;39.18;101846.44;5135182;27;19971;-69
2023/04/26 02:06:37;;;;;;;;;;;;;;;19.51;39.17;101854.72;5132385;27;19964;-69
2023/04/26 02:09:03;;;;;;;;;;;;;;;19.49;38.90;101850.28;5129899;27;20000;-69
2023/04/26 02:11:28;;;;;;;;;;;;;;;19.49;38.83;101852.13;5131436;27;19919;-69
2023/04/26 02:13:54;;;;;;;;;;;;;;;19.49;38.90;101850.28;5130239;27;19920;-69
2023/04/26 02:16:20;;;;;;;;;;;;;;;19.49;39.02;101849.44;5110026;28;19912;-69
2023/04/26 02:18:46;;;;;;;;;;;;;;;19.47;39.23;101846.91;5130604;27;20002;-69
2023/04/26 02:21:11;;;;;;;;;;;;;;;19.48;39.16;101851.28;5133188;27;20457;-69
2023/04/26 02:23:36;;;;;;;;;;;;;;;19.47;38.87;101851.44;5130556;27;19923;-69
2023/04/26 02:26:02;;;;;;;;;;;;;;;19.47;38.88;101843.34;5133911;27;19955;-69
2023/04/26 02:28:27;;;;;;;;;;;;;;;19.47;39.01;101848.75;5133492;27;20018;-69
2023/04/26 02:30:52;;;;;;;;;;;;;;;19.46;38.98;101847.91;5134242;27;19911;-69
2023/04/26 02:33:17;;;;;;;;;;;;;;;19.46;38.88;101847.91;5137784;27;20360;-69
2023/04/26 02:35:42;;;;;;;;;;;;;;;19.47;39.03;101840.66;5130573;27;19915;-69
2023/04/26 02:38:08;;;;;;;;;;;;;;;19.47;38.73;101843.34;5131006;27;19911;-69
2023/04/26 02:40:33;;;;;;;;;;;;;;;19.46;38.95;101850.59;5130442;28;19912;-69
2023/04/26 02:42:58;;;;;;;;;;;;;;;19.47;38.78;101851.44;5111993;28;19920;-69
2023/04/26 02:45:23;;;;;;;;;;;;;;;19.47;38.88;101849.59;5129684;28;19912;-69
2023/04/26 02:47:48;;;;;;;;;;;;;;;19.47;38.72;101848.75;5112368;28;20003;-69
2023/04/26 02:50:14;;;;;;;;;;;;;;;19.47;38.70;101843.34;5132847;27;19912;-69
2023/04/26 02:52:39;;;;;;;;;;;;;;;19.47;38.70;101838.81;5131976;28;19920;-69
2023/04/26 02:55:04;;;;;;;;;;;;;;;19.48;38.70;101839.66;5134299;28;20035;-69
2023/04/26 02:57:32;;;;;;;;;;;;;;;19.49;38.96;101844.03;5131315;28;19957;-69
2023/04/26 02:59:58;;;;;;;;;;;;;;;19.48;38.61;101847.75;5137647;28;19933;-69
2023/04/26 03:02:23;;;;;;;;;;;;;;;19.49;38.67;101842.19;5130210;28;19916;-69
2023/04/26 03:04:49;;;;;;;;;;;;;;;19.49;38.59;101850.28;5111950;27;19923;-69
2023/04/26 03:07:14;;;;;;;;;;;;;;;19.49;38.50;101847.59;5115604;27;19912;-69
2023/04/26 03:09:39;;;;;;;;;;;;;;;19.51;38.81;101842.06;5116545;27;19947;-69
2023/04/26 03:12:07;;;;;;;;;;;;;;;19.52;38.69;101845.59;5135004;27;19915;-69
2023/04/26 03:14:33;;;;;;;;;;;;;;;19.53;38.43;101852.69;5103534;27;19970;-69
2023/04/26 03:16:58;;;;;;;;;;;;;;;19.52;38.61;101842.91;5135887;27;19919;-69
2023/04/26 03:19:24;;;;;;;;;;;;;;;19.54;38.41;101838.19;5136299;27;19922;-69
2023/04/26 03:21:49;;;;;;;;;;;;;;;19.54;38.55;101833.69;5138456;27;19916;-69
2023/04/26 03:24:14;;;;;;;;;;;;;;;19.54;38.44;101836.38;5133778;27;19920;-69
2023/04/26 03:26:40;;;;;;;;;;;;;;;19.54;38.60;101839.06;5143728;27;19919;-69
2023/04/26 03:29:06;;;;;;;;;;;;;;;19.55;38.41;101835.38;5134349;27;19959;-69
2023/04/26 03:31:31;;;;;;;;;;;;;;;19.57;38.33;101840.59;5133664;27;19912;-69
2023/04/26 03:33:56;;;;;;;;;;;;;;;19.56;38.43;101831.66;5120479;27;20374;-69
2023/04/26 03:36:21;;;;;;;;;;;;;;;19.57;38.23;101822.56;5119948;27;19915;-69
2023/04/26 03:38:47;;;;;;;;;;;;;;;19.58;38.25;101826.09;5116906;27;19943;-69
2023/04/26 03:41:12;;;;;;;;;;;;;;;19.58;38.25;101824.28;5134059;27;19926;-69
2023/04/26 03:43:37;;;;;;;;;;;;;;;19.59;38.16;101817.03;5133428;27;19920;-69
2023/04/26 03:46:02;;;;;;;;;;;;;;;19.60;38.08;101816.03;5123861;27;19916;-69
2023/04/26 03:48:28;;;;;;;;;;;;;;;19.60;38.37;101824.97;5102496;27;19937;-69
2023/04/26 03:50:53;;;;;;;;;;;;;;;19.60;38.47;101811.47;5134561;27;19911;-69
2023/04/26 03:53:19;;;;;;;;;;;;;;;19.62;38.32;101819.44;5141082;27;19933;-69
2023/04/26 03:55:44;;;;;;;;;;;;;;;19.62;38.29;101811.34;5136680;27;20327;-69
2023/04/26 03:58:09;;;;;;;;;;;;;;;19.62;38.01;101817.59;5129134;27;19990;-69
2023/04/26 04:00:37;;;;;;;;;;;;;;;19.63;38.20;101821.16;5139056;27;20027;-69
2023/04/26 04:03:03;;;;;;;;;;;;;;;19.63;38.13;101813.06;5133319;27;19953;-68
2023/04/26 04:05:28;;;;;;;;;;;;;;;19.64;37.96;101818.31;5111673;27;19962;-69
2023/04/26 04:07:55;;;;;;;;;;;;;;;19.65;38.02;101813.75;5132634;27;19922;-69
2023/04/26 04:10:21;;;;;;;;;;;;;;;19.64;38.11;101812.91;5116583;28;19954;-67
2023/04/26 04:12:47;;;;;;;;;;;;;;;19.65;38.16;101820.00;5134797;27;19932;-69
2023/04/26 04:15:12;;;;;;;;;;;;;;;19.65;38.03;101817.28;5127244;27;19916;-69
2023/04/26 04:17:37;;;;;;;;;;;;;;;19.64;37.88;101821.00;5131347;27;19912;-69
2023/04/26 04:20:06;;;;;;;;;;;;;;;19.65;37.97;101822.69;5136578;27;22040;-69
2023/04/26 04:22:31;;;;;;;;;;;;;;;19.64;37.91;101818.31;5135656;27;19915;-69
2023/04/26 04:24:56;;;;;;;;;;;;;;;19.64;37.90;101826.41;5133271;27;19943;-69
2023/04/26 04:27:21;;;;;;;;;;;;;;;19.65;38.16;101829.94;5131760;27;19920;-69
2023/04/26 04:29:47;;;;;;;;;;;;;;;19.65;37.99;101829.94;5131302;27;20356;-69
2023/04/26 04:32:13;;;;;;;;;;;;;;;19.65;38.36;101827.25;5134805;27;20473;-70
2023/04/26 04:34:39;;;;;;;;;;;;;;;19.66;38.54;101832.47;5125677;27;20364;-70
2023/04/26 04:37:04;;;;;;;;;;;;;;;19.67;38.63;101823.41;5131913;27;19927;-70
2023/04/26 04:39:29;;;;;;;;;;;;;;;19.68;38.81;101835.88;5132843;27;19950;-70
2023/04/26 04:41:55;;;;;;;;;;;;;;;19.70;38.57;101839.28;5132626;27;19958;-69
2023/04/26 04:44:21;;;;;;;;;;;;;;;19.71;38.68;101832.06;5119662;27;20024;-68
2023/04/26 04:46:46;;;;;;;;;;;;;;;19.72;38.40;101831.88;5129799;27;19929;-69
2023/04/26 04:49:12;;;;;;;;;;;;;;;19.74;38.81;101831.72;5137469;27;19979;-70
2023/04/26 04:51:37;;;;;;;;;;;;;;;19.77;38.65;101835.97;5115972;27;19916;-70
2023/04/26 04:54:12;;;;;;;;;;;;;;;19.78;38.71;101834.97;5134627;27;19911;-70
2023/04/26 04:56:37;;;;;;;;;;;;;;;19.79;38.77;101839.38;5133310;27;19916;-70
2023/04/26 04:59:03;;;;;;;;;;;;;;;19.80;38.70;101836.53;5133006;27;20360;-71
2023/04/26 05:01:29;;;;;;;;;;;;;;;19.81;38.81;101835.53;5115811;27;20362;-68
2023/04/26 05:03:55;;;;;;;;;;;;;;;19.83;38.72;101838.06;5112656;27;19927;-68
2023/04/26 05:06:20;;;;;;;;;;;;;;;19.84;38.48;101845.19;5132052;27;19938;-67
2023/04/26 05:08:45;;;;;;;;;;;;;;;19.86;38.57;101843.16;5131118;27;19920;-70
2023/04/26 05:11:11;;;;;;;;;;;;;;;19.86;38.65;101846.72;5130008;27;19912;-70
2023/04/26 05:13:36;;;;;;;;;;;;;;;19.87;38.84;101848.41;5132649;27;20391;-70
2023/04/26 05:16:01;;;;;;;;;;;;;;;19.88;38.50;101847.41;5115229;27;19922;-69
2023/04/26 05:18:26;;;;;;;;;;;;;;;19.89;38.56;101838.31;5134659;27;19919;-70
2023/04/26 05:20:51;;;;;;;;;;;;;;;19.91;38.63;101848.94;5135649;27;19915;-70
2023/04/26 05:23:17;;;;;;;;;;;;;;;19.92;38.61;101847.94;5115473;27;19936;-69
2023/04/26 05:25:42;;;;;;;;;;;;;;;19.93;38.54;101845.09;5132270;27;19979;-70
2023/04/26 05:28:11;;;;;;;;;;;;;;;19.93;38.64;101850.50;5130655;27;19922;-70
2023/04/26 05:30:36;;;;;;;;;;;;;;;19.96;38.83;101854.72;5112670;28;20490;-69
2023/04/26 05:33:01;;;;;;;;;;;;;;;19.97;38.64;101857.28;5112463;28;19933;-71
2023/04/26 05:35:27;;;;;;;;;;;;;;;19.98;38.60;101850.88;5131003;27;19912;-69
2023/04/26 05:37:53;;;;;;;;;;;;;;;20.00;38.31;101853.44;5134294;27;19918;-69
2023/04/26 05:40:18;;;;;;;;;;;;;;;20.02;38.38;101859.53;5115519;27;19911;-70
2023/04/26 05:42:43;;;;;;;;;;;;;;;20.03;38.38;101866.63;5134521;27;19941;-70
2023/04/26 05:45:09;;;;;;;;;;;;;;;20.05;38.55;101861.94;5133297;27;19918;-70
2023/04/26 05:47:34;;;;;;;;;;;;;;;20.07;38.19;101868.03;5114823;27;19941;-70
2023/04/26 05:49:59;;;;;;;;;;;;;;;20.08;38.35;101867.00;5138582;27;19912;-70
2023/04/26 05:52:24;;;;;;;;;;;;;;;20.08;37.90;101871.56;5112177;27;19915;-70
2023/04/26 05:54:49;;;;;;;;;;;;;;;20.10;37.85;101872.28;5115459;27;19927;-72
2023/04/26 05:57:15;;;;;;;;;;;;;;;20.11;37.95;101869.41;5128758;27;19953;-69
2023/04/26 05:59:40;;;;;;;;;;;;;;;20.12;37.88;101872.97;5130467;27;19959;-71
2023/04/26 06:02:05;;;;;;;;;;;;;;;20.13;37.89;101875.50;5116761;27;19919;-71
2023/04/26 06:04:31;;;;;;;;;;;;;;;20.14;37.75;101869.13;5130386;27;19920;-71
2023/04/26 06:06:56;;;;;;;;;;;;;;;20.16;38.01;101867.09;5132849;27;19922;-68
2023/04/26 06:09:22;;;;;;;;;;;;;;;20.18;37.80;101877.75;5130301;27;19933;-68
2023/04/26 06:11:47;;;;;;;;;;;;;;;20.20;37.72;101878.44;5115381;27;19916;-69
2023/04/26 06:14:12;;;;;;;;;;;;;;;20.21;37.56;101872.03;5130515;27;19919;-69
2023/04/26 06:16:37;;;;;;;;;;;;;;;20.22;37.71;101881.84;5120428;27;19916;-69
2023/04/26 06:19:02;;;;;;;;;;;;;;;20.25;37.72;101884.22;5122685;27;20319;-69
2023/04/26 06:21:27;;;;;;;;;;;;;;;20.25;37.54;101881.53;5123983;27;19975;-69
2023/04/26 06:23:53;;;;;;;;;;;;;;;20.27;37.28;101884.09;5132621;27;19967;-69
2023/04/26 06:26:18;;;;;;;;;;;;;;;20.27;37.52;101890.34;5130026;27;19912;-69
2023/04/26 06:28:43;;;;;;;;;;;;;;;20.29;37.37;101893.72;5130061;27;19921;-69
2023/04/26 06:31:08;;;;;;;;;;;;;;;20.31;37.42;101898.97;5125275;27;19947;-69
2023/04/26 06:33:33;;;;;;;;;;;;;;;20.31;37.26;101889.03;5113625;28;19912;-69
2023/04/26 06:35:58;;;;;;;;;;;;;;;20.34;37.15;101901.34;5125352;28;20841;-69
2023/04/26 06:38:24;;;;;;;;;;;;;;;20.35;37.06;101898.53;5132421;28;20505;-69
2023/04/26 06:40:49;;;;;;;;;;;;;;;20.37;37.07;101901.06;5109185;28;19911;-68
2023/04/26 06:43:14;;;;;;;;;;;;;;;20.39;36.89;101893.63;5137292;28;19924;-69
2023/04/26 06:45:39;;;;;;;;;;;;;;;20.42;37.17;101896.03;5106835;28;19929;-69
2023/04/26 06:48:05;;;;;;;;;;;;;;;20.43;37.13;101890.50;5129754;28;19922;-69
2023/04/26 06:50:30;;;;;;;;;;;;;;;20.45;36.91;101893.88;5137442;27;19915;-69
2023/04/26 06:52:55;;;;;;;;;;;;;;;20.49;37.23;101897.16;5130027;28;20003;-69
2023/04/26 06:55:21;;;;;;;;;;;;;;;20.51;36.91;101895.13;5133948;28;19918;-69
2023/04/26 06:57:46;;;;;;;;;;;;;;;20.53;36.82;101898.53;5129050;28;19920;-69
2023/04/26 07:00:12;;;;;;;;;;;;;;;20.55;37.01;101891.13;5131094;28;19920;-69
2023/04/26 07:02:37;;;;;;;;;;;;;;;20.58;36.71;101895.38;5112047;28;20411;-68
2023/04/26 07:05:03;;;;;;;;;;;;;;;20.61;36.94;101901.31;5113428;28;19911;-68
2023/04/26 07:07:28;;;;;;;;;;;;;;;20.63;36.78;101898.44;5123706;28;19927;-68
2023/04/26 07:09:53;;;;;;;;;;;;;;;20.66;36.61;101903.56;5113970;28;19955;-69
2023/04/26 07:12:18;;;;;;;;;;;;;;;20.68;36.76;101896.97;5116122;28;20456;-68
2023/04/26 07:14:43;;;;;;;;;;;;;;;20.71;36.68;101899.38;5129801;28;19974;-69
2023/04/26 07:17:09;;;;;;;;;;;;;;;20.74;36.56;101906.31;5117286;28;19912;-69
2023/04/26 07:19:34;;;;;;;;;;;;;;;20.77;36.73;101913.25;5110276;28;19933;-69
2023/04/26 07:22:00;;;;;;;;;;;;;;;20.79;36.65;101909.41;5129909;28;19911;-69
2023/04/26 07:24:25;;;;;;;;;;;;;;;20.81;36.39;101904.66;5131237;28;20384;-69
2023/04/26 07:26:51;;;;;;;;;;;;;;;20.83;36.46;101913.47;5124864;28;19915;-69
2023/04/26 07:29:17;;;;;;;;;;;;;;;20.85;36.17;101908.75;5129613;28;19916;-69
2023/04/26 07:31:42;;;;;;;;;;;;;;;20.87;36.13;101906.75;5112479;28;19912;-69
2023/04/26 07:34:08;;;;;;;;;;;;;;;20.90;36.40;101902.91;5111896;28;20295;-69
2023/04/26 07:36:33;;;;;;;;;;;;;;;20.92;36.00;101906.28;5129164;27;20295;-69
2023/04/26 07:38:58;;;;;;;;;;;;;;;20.94;35.95;101902.44;5132165;28;20386;-69
2023/04/26 07:41:23;;;;;;;;;;;;;;;20.96;35.92;101900.41;5130423;28;19915;-69
2023/04/26 07:43:49;;;;;;;;;;;;;;;20.98;36.10;101905.63;5125253;28;20018;-69
2023/04/26 07:46:14;;;;;;;;;;;;;;;21.02;35.99;101900.78;5130787;28;19912;-69
2023/04/26 07:48:39;;;;;;;;;;;;;;;21.03;35.87;101908.75;5124552;28;19974;-69
2023/04/26 07:51:08;;;;;;;;;;;;;;;21.05;35.62;101900.47;5135431;27;20356;-69
2023/04/26 07:53:34;;;;;;;;;;;;;;;21.08;35.77;101902.84;5131986;27;19988;-69
2023/04/26 07:55:59;;;;;;;;;;;;;;;21.10;35.60;101901.66;5113493;27;19912;-69
2023/04/26 07:58:24;;;;;;;;;;;;;;;21.13;35.72;101905.94;5132186;27;19911;-68
2023/04/26 08:00:49;;;;;;;;;;;;;;;21.14;35.62;101905.75;5134880;27;19916;-69
2023/04/26 08:03:17;;;;;;;;;;;;;;;21.16;35.56;101906.47;5132554;27;19927;-68
2023/04/26 08:05:43;;;;;;;;;;;;;;;21.18;35.51;101914.41;5119611;27;20372;-68
2023/04/26 08:08:08;;;;;;;;;;;;;;;21.22;35.37;101915.78;5125241;27;19937;-69
2023/04/26 08:10:33;;;;;;;;;;;;;;;21.23;35.20;101914.75;5115984;27;19916;-69
2023/04/26 08:13:02;;;;;;;;;;;;;;;21.26;35.20;101914.47;5135858;27;19970;-69
2023/04/26 08:15:27;;;;;;;;;;;;;;;21.28;35.39;101915.16;5114616;27;20425;-69
2023/04/26 08:17:52;;;;;;;;;;;;;;;21.30;35.03;101907.72;5118948;27;19912;-69
2023/04/26 08:20:17;;;;;;;;;;;;;;;21.33;35.06;101920.13;5114576;27;19923;-69
2023/04/26 08:22:42;;;;;;;;;;;;;;;21.35;35.37;101913.53;5112902;27;19937;-69
2023/04/26 08:25:09;;;;;;;;;;;;;;;21.38;35.18;101918.63;5132225;27;19916;-69
2023/04/26 08:27:35;;;;;;;;;;;;;;;21.40;35.09;101922.00;5127653;27;19919;-69
2023/04/26 08:30:00;;;;;;;;;;;;;;;21.43;35.24;101918.97;5132378;27;19918;-69
2023/04/26 08:32:25;;;;;;;;;;;;;;;21.46;34.90;101923.22;5134670;27;19963;-69
2023/04/26 08:34:51;;;;;;;;;;;;;;;21.48;35.06;101910.38;5106733;27;19918;-69
2023/04/26 08:37:16;;;;;;;;;;;;;;;21.50;34.82;101916.50;5117554;27;20356;-69
2023/04/26 08:39:41;;;;;;;;;;;;;;;21.53;34.92;101924.25;5119149;28;19919;-69
2023/04/26 08:42:14;;;;;;;;;;;;;;;21.54;34.93;101917.88;5128448;27;20015;-69
2023/04/26 08:44:40;;;;;;;;;;;;;;;21.57;34.66;101922.09;5134892;27;20407;-69
2023/04/26 08:47:06;;;;;;;;;;;;;;;21.59;34.52;101914.69;5108780;28;20010;-69
2023/04/26 08:49:32;;;;;;;;;;;;;;;21.62;34.87;101917.03;5130798;27;19915;-69
2023/04/26 08:51:57;;;;;;;;;;;;;;;21.65;34.85;101922.97;5133771;27;19912;-69
2023/04/26 08:54:24;;;;;;;;;;;;;;;21.70;34.53;101919.78;5115880;27;19912;-69
2023/04/26 08:56:51;;;;;;;;;;;;;;;21.73;34.54;101927.59;5112288;27;19919;-71
2023/04/26 08:59:16;;;;;;;;;;;;;;;21.74;34.53;101926.56;5113829;27;19916;-70
2023/04/26 09:01:42;;;;;;;;;;;;;;;21.77;34.49;101915.41;5112402;27;19912;-72
2023/04/26 09:04:07;;;;;;;;;;;;;;;21.79;34.57;101916.13;5115857;27;20494;-70
2023/04/26 09:06:32;;;;;;;;;;;;;;;21.80;34.70;101923.22;5118485;27;20291;-71
2023/04/26 09:08:58;;;;;;;;;;;;;;;21.83;34.48;101911.19;5114845;27;19916;-71
2023/04/26 09:11:23;;;;;;;;;;;;;;;21.86;34.61;101921.72;5115472;28;20284;-70
2023/04/26 09:13:48;;;;;;;;;;;;;;;21.89;34.85;101913.28;5134584;27;19971;-71
2023/04/26 09:16:13;;;;;;;;;;;;;;;21.89;34.50;101911.41;5124287;27;20376;-71
2023/04/26 09:18:51;;;;;;;;;;;;;;;21.93;34.63;101912.78;5099075;28;20410;-70
2023/04/26 09:21:18;;;;;;;;;;;;;;;21.96;34.66;101907.03;5116142;27;19915;-70
2023/04/26 09:23:43;;;;;;;;;;;;;;;;;;5112016;27;19916;-70
2023/04/26 09:26:15;;;;;;;;;;;;;;;22.01;34.73;101905.69;5132037;27;20474;-70
2023/04/26 09:28:41;;;;;;;;;;;;;;;22.03;34.48;101904.50;5114755;27;19912;-70
2023/04/26 09:31:06;;;;;;;;;;;;;;;21.31;34.51;101776.88;5128841;27;19954;-71
2023/04/26 09:33:31;;;;;;;;;;;;;;;22.11;34.45;101899.09;5132110;27;19919;-71
2023/04/26 09:35:57;;;;;;;;;;;;;;;22.12;34.55;101911.66;5106333;27;19991;-70
2023/04/26 09:38:22;;;;;;;;;;;;;;;22.13;34.35;101902.53;5113506;27;19911;-72
2023/04/26 09:40:48;;;;;;;;;;;;;;;22.16;34.34;101904.06;5133371;27;19961;-70
2023/04/26 09:43:14;;;;;;;;;;;;;;;22.18;34.61;101900.19;5119584;27;19924;-70
2023/04/26 09:46:06;;;;;;;;;;;;;;;22.20;34.56;101900.00;5133806;27;19923;-69
2023/04/26 09:48:33;;;;;;;;;;;;;;;22.22;34.62;101898.00;5128262;27;20647;-71
2023/04/26 09:51:00;;;;;;;;;;;;;;;22.25;34.70;101900.34;5134596;27;20356;-72
2023/04/26 09:53:29;;;;;;;;;;;;;;;22.26;35.00;101896.66;5100899;27;19943;-70
2023/04/26 09:55:55;;;;;;;;;;;;;;;22.27;34.74;101895.63;5132114;27;19982;-71
2023/04/26 09:58:20;;;;;;;;;;;;;;;22.32;34.83;101895.97;5113691;28;20404;-71
2023/04/26 10:00:45;;;;;;;;;;;;;;;22.35;34.90;101898.34;5134870;27;19978;-69
2023/04/26 10:03:11;;;;;;;;;;;;;;;22.40;34.65;101901.41;5106981;28;19966;-68
2023/04/26 10:05:36;;;;;;;;;;;;;;;22.44;34.71;101902.75;5134142;27;19915;-69
2023/04/26 10:08:02;;;;;;;;;;;;;;;22.43;34.84;101894.81;5131137;27;20011;-72
2023/04/26 10:10:28;;;;;;;;;;;;;;;22.45;34.87;101900.88;5117107;27;19916;-72
2023/04/26 10:12:53;;;;;;;;;;;;;;;22.45;34.98;101896.31;5113635;27;19915;-72
2023/04/26 10:15:18;;;;;;;;;;;;;;;22.50;34.82;101897.66;5113021;27;19927;-69
2023/04/26 10:17:43;;;;;;;;;;;;;;;22.51;34.76;101893.94;5130684;27;19962;-69
2023/04/26 10:20:11;;;;;;;;;;;;;;;22.53;34.82;101890.06;5111627;28;19955;-70
2023/04/26 10:22:39;;;;;;;;;;;;;;;22.52;34.75;101899.22;5129153;27;19935;-70
2023/04/26 10:25:05;;;;;;;;;;;;;;;22.51;34.99;101888.50;5113556;27;20026;-70
2023/04/26 10:27:43;;;;;;;;;;;;;;;22.49;35.19;101890.56;5111858;27;19915;-70
2023/04/26 10:30:11;;;;;;;;;;;;;;;22.48;34.82;101895.13;5130344;27;19916;-69
2023/04/26 10:32:48;;;;;;;;;;;;;;;22.50;35.24;101879.53;5133877;27;19924;-70
2023/04/26 10:35:16;;;;;;;;;;;;;;;22.52;35.29;101880.25;5129382;28;19923;-69
2023/04/26 10:37:59;;;;;;;;;;;;;;;22.53;35.25;101879.22;5130565;27;20553;-70
2023/04/26 10:40:31;;;;;;;;;;;;;;;22.55;35.12;101884.44;5129109;28;19923;-69
2023/04/26 10:43:15;;;;;;;;;;;;;;;22.55;35.37;101887.16;5133612;28;19955;-69
2023/04/26 10:45:40;;;;;;;;;;;;;;;22.52;35.14;101882.94;5132368;28;19962;-69
2023/04/26 10:48:21;;;;;;;;;;;;;;;22.52;35.14;101884.81;5118522;28;19951;-69
2023/04/26 10:51:04;;;;;;;;;;;;;;;22.48;35.29;101886.16;5131260;27;19915;-69
2023/04/26 10:53:33;;;;;;;;;;;;;;;22.43;35.00;101884.81;5133451;27;19923;-69
2023/04/26 10:55:59;;;;;;;;;;;;;;;22.35;35.59;101884.78;5110824;28;19941;-69
2023/04/26 10:58:25;;;;;;;;;;;;;;;22.30;35.42;101881.75;5129351;28;19919;-69
2023/04/26 11:01:02;;;;;;;;;;;;;;;22.28;35.59;101877.50;5131263;28;19945;-69
2023/04/26 11:03:28;;;;;;;;;;;;;;;22.25;35.69;101880.53;5097372;28;19919;-70
2023/04/26 11:05:54;;;;;;;;;;;;;;;22.22;35.66;101881.75;5110348;28;20288;-70
2023/04/26 11:08:30;;;;;;;;;;;;;;;22.17;35.56;101882.25;5128017;28;19926;-69
2023/04/26 11:11:01;;;;;;;;;;;;;;;22.18;35.61;101889.34;5127733;28;19950;-73
2023/04/26 11:13:30;;;;;;;;;;;;;;;22.20;35.71;101886.47;5128795;28;19979;-69
2023/04/26 11:15:59;;;;;;;;;;;;;;;22.17;36.02;101884.06;5126888;28;19915;-69
2023/04/26 11:18:24;;;;;;;;;;;;;;;22.18;35.52;101883.94;5130326;28;20363;-68
2023/04/26 11:20:49;;;;;;;;;;;;;;;22.00;35.75;101841.69;5132664;28;20360;-69
2023/04/26 11:23:15;;;;;;;;;;;;;;;22.26;35.92;101883.09;5131292;28;19959;-69
2023/04/26 11:25:40;;;;;;;;;;;;;;;22.31;35.97;101886.16;5113579;28;19923;-69
2023/04/26 11:28:06;;;;;;;;;;;;;;;22.32;35.86;101887.84;5137363;27;19968;-70
2023/04/26 11:30:31;;;;;;;;;;;;;;;22.33;35.57;101891.38;5135973;27;19943;-69
2023/04/26 11:32:57;;;;;;;;;;;;;;;22.31;35.75;101883.44;5130360;27;19920;-69
2023/04/26 11:35:23;;;;;;;;;;;;;;;22.30;35.82;101883.59;5134111;27;19912;-69
2023/04/26 11:37:50;;;;;;;;;;;;;;;22.25;35.79;101888.66;5123409;27;20380;-69
2023/04/26 11:40:15;;;;;;;;;;;;;;;22.20;35.99;101879.19;5118190;27;19931;-68
2023/04/26 11:42:42;;;;;;;;;;;;;;;22.18;36.04;101883.94;5111330;27;19927;-69
2023/04/26 11:45:07;;;;;;;;;;;;;;;22.16;36.10;101885.09;5136108;27;20002;-68
2023/04/26 11:47:33;;;;;;;;;;;;;;;22.14;36.17;101884.44;5134287;27;19930;-68
2023/04/26 11:49:58;;;;;;;;;;;;;;;22.14;36.09;101890.69;5132435;27;19915;-69
2023/04/26 11:52:23;;;;;;;;;;;;;;;22.13;36.04;101882.72;5115379;27;19916;-69
2023/04/26 11:54:48;;;;;;;;;;;;;;;21.64;36.12;101813.03;5113192;28;20001;-69
2023/04/26 11:57:14;;;;;;;;;;;;;;;22.12;36.02;101881.00;5112346;27;19979;-68
2023/04/26 11:59:39;;;;;;;;;;;;;;;22.10;36.32;101883.88;5134682;27;20354;-68
2023/04/26 12:02:06;;;;;;;;;;;;;;;22.09;36.14;101895.72;5113898;27;19973;-68
2023/04/26 12:04:31;;;;;;;;;;;;;;;22.09;36.23;101887.59;5112927;27;19932;-68
2023/04/26 12:06:56;;;;;;;;;;;;;;;22.13;36.14;101896.25;5129991;27;20003;-68
2023/04/26 12:09:22;;;;;;;;;;;;;;;22.14;36.01;101895.25;5130871;27;19940;-69
2023/04/26 12:11:49;;;;;;;;;;;;;;;22.13;36.01;101896.25;5133687;27;19927;-69
2023/04/26 12:14:15;;;;;;;;;;;;;;;22.13;35.95;101891.72;5114007;27;19927;-69
2023/04/26 12:16:41;;;;;;;;;;;;;;;22.13;36.25;101894.41;5116201;27;20000;-69
2023/04/26 12:19:06;;;;;;;;;;;;;;;22.13;36.22;101890.84;5117000;27;19931;-70
2023/04/26 12:21:39;;;;;;;;;;;;;;;22.14;35.98;101895.25;5133774;27;19919;-70
2023/04/26 12:24:05;;;;;;;;;;;;;;;22.20;35.77;101897.28;5111303;27;19973;-67
2023/04/26 12:26:43;;;;;;;;;;;;;;;22.19;35.81;101891.03;5131228;27;20005;-68
2023/04/26 12:29:08;;;;;;;;;;;;;;;22.24;35.76;101897.81;5128639;27;20425;-68
2023/04/26 12:31:34;;;;;;;;;;;;;;;22.25;35.71;101903.06;5116235;27;19916;-69